CYWG/YWG METAR and TAF weather

Enter ICAO airport designator
Station Type Date Time Source
CYWG METAR 2020/07/10 21:00 UTC NOAA

CYWG 102100Z 31012KT 15SM SCT050 26/14 A2994 RMK CU4 SLP142 DENSITY ALT 2200FT


Station Type Date Time Source
CYWG Decoded METAR 2020/07/10 21:00 UTC NOAA

Winnipeg Int. Airportman., Canada (CYWG) 49-54N 097-14W 239M
Jul 10, 2020 - 05:00 PM EDT / 2020.07.10 2100 UTC
Wind: from the NW (310 degrees) at 14 MPH (12 KT):0
Visibility: 15 mile(s):0
Sky conditions: partly cloudy
Temperature: 78 F (26 C)
Dew Point: 57 F (14 C)
Relative Humidity: 47%
Pressure (altimeter): 29.94 in. Hg (1013 hPa)
ob: CYWG 102100Z 31012KT 15SM SCT050 26/14 A2994 RMK CU4 SLP142 DENSITY ALT 2200FT
cycle: 21

Station Type Date Time Source
CYWG TAF 2020/07/10 18:39 UTC NOAA

TAF CYWG 101738Z 1018/1118 31008KT P6SM SCT040
TEMPO 1018/1021 BKN050
FM102100 32010KT P6SM SKC
FM110300 32006KT P6SM SCT040
BECMG 1108/1110 VRB03KT
BECMG 1114/1116 34008KT
RMK NXT FCST BY 110000Z

Example: see airport list